Terminal Aerodrome Forecast
Issued by NWS

Home | Current Version | Previous Version | Text Only | Print | Product List | Glossary On
Versions: 1 2 3 4 5 6 7 8 9 10 11 12 13 14
112
FTUS45 KRIW 091122
TAFJAC
TAF
KJAC 091122Z 0912/1012 35005KT P6SM VCFG FEW005
     FM091300 VRB03KT P6SM VCFG SCT003
      TEMPO 0913/0915 2SM BR
     FM091700 VRB03KT P6SM FEW015
     FM100100 34005KT P6SM SKC
     FM100500 35006KT P6SM VCFG SCT005
      AMD LTD TO CLD VIS AND WIND=

USA.gov is the U.S. government's official web portal to all federal, state and local government web resources and services.